createdAt,value
2023-01-28T00:00:41.066Z,3.03
2023-01-28T00:01:41.240Z,3
2023-01-28T00:02:41.277Z,3
2023-01-28T00:03:41.260Z,3
2023-01-28T00:04:41.085Z,2.93
2023-01-28T00:05:41.077Z,3
2023-01-28T00:06:41.062Z,3
2023-01-28T00:07:41.038Z,2.98
2023-01-28T00:08:41.138Z,3.06
2023-01-28T00:09:41.213Z,3.01
2023-01-28T00:10:41.208Z,3
2023-01-28T00:11:43.830Z,3.01
2023-01-28T00:12:44.141Z,2.97
2023-01-28T00:13:42.138Z,3.05
2023-01-28T00:14:43.860Z,2.98
2023-01-28T00:15:41.066Z,3.01
2023-01-28T00:16:41.264Z,3.05
2023-01-28T00:17:41.104Z,3.08
2023-01-28T00:18:41.107Z,3.06
2023-01-28T00:19:41.144Z,3.05
2023-01-28T00:20:41.107Z,2.97
2023-01-28T00:21:41.118Z,2.93
2023-01-28T00:22:41.110Z,3
2023-01-28T00:23:44.195Z,2.93
2023-01-28T00:24:41.133Z,2.94
2023-01-28T00:25:41.077Z,3.08
2023-01-28T00:26:41.087Z,2.94
2023-01-28T00:27:41.125Z,2.98
2023-01-28T00:28:41.101Z,3.01
2023-01-28T00:29:41.294Z,2.98
2023-01-28T00:30:41.246Z,2.97
2023-01-28T00:31:41.317Z,2.93
2023-01-28T00:32:42.883Z,2.98
2023-01-28T00:33:41.132Z,2.97
2023-01-28T00:34:44.156Z,3.08
2023-01-28T00:35:41.145Z,2.98
2023-01-28T00:36:41.127Z,3.03
2023-01-28T00:37:41.194Z,2.91
2023-01-28T00:38:41.106Z,3.08
2023-01-28T00:39:41.098Z,2.98
2023-01-28T00:40:41.140Z,3.03
2023-01-28T00:41:41.090Z,2.97
2023-01-28T00:42:41.135Z,2.95
2023-01-28T00:43:41.176Z,3.01
2023-01-28T00:44:41.159Z,2.98
2023-01-28T00:45:44.289Z,3.01
2023-01-28T00:46:41.170Z,3.03
2023-01-28T00:47:41.121Z,2.98
2023-01-28T00:48:42.166Z,2.98
2023-01-28T00:49:41.163Z,2.97
2023-01-28T00:50:41.159Z,3.05
2023-01-28T00:51:41.189Z,3.06
2023-01-28T00:52:41.221Z,3.05
2023-01-28T00:53:41.160Z,3.08
2023-01-28T00:54:41.204Z,3.01
2023-01-28T00:55:41.191Z,3.03
2023-01-28T00:56:43.998Z,3.03
2023-01-28T00:57:41.178Z,2.97
2023-01-28T00:58:41.166Z,3
2023-01-28T00:59:41.157Z,3.11
2023-01-28T01:00:41.146Z,3.01
2023-01-28T01:01:41.418Z,2.98
2023-01-28T01:02:44.081Z,3
2023-01-28T01:03:41.163Z,2.95
2023-01-28T01:04:41.224Z,3.01
2023-01-28T01:05:41.156Z,2.98
2023-01-28T01:06:41.288Z,3
2023-01-28T01:07:44.097Z,2.97
2023-01-28T01:08:41.182Z,2.97
2023-01-28T01:09:41.244Z,2.94
2023-01-28T01:10:41.179Z,2.95
2023-01-28T01:11:41.210Z,2.98
2023-01-28T01:12:44.277Z,2.97
2023-01-28T01:13:41.195Z,3
2023-01-28T01:14:41.188Z,3.03
2023-01-28T01:15:44.262Z,2.97
2023-01-28T01:16:41.174Z,2.95
2023-01-28T01:17:41.182Z,2.94
2023-01-28T01:18:41.267Z,3
2023-01-28T01:19:41.177Z,2.97
2023-01-28T01:20:41.203Z,2.94
2023-01-28T01:21:41.248Z,2.94
2023-01-28T01:22:41.222Z,3
2023-01-28T01:23:44.327Z,2.94
2023-01-28T01:24:42.229Z,2.97
2023-01-28T01:25:41.168Z,2.98
2023-01-28T01:26:41.204Z,2.94
2023-01-28T01:27:41.462Z,3.01
2023-01-28T01:28:41.211Z,2.94
2023-01-28T01:29:41.212Z,2.93
2023-01-28T01:30:44.266Z,2.97
2023-01-28T01:31:42.303Z,3.06
2023-01-28T01:32:41.206Z,2.94
2023-01-28T01:33:41.237Z,3.01
2023-01-28T01:34:41.220Z,2.95
2023-01-28T01:35:41.192Z,2.97
2023-01-28T01:36:41.265Z,3.03
2023-01-28T01:37:42.236Z,3
2023-01-28T01:38:41.246Z,2.94
2023-01-28T01:39:44.131Z,2.94
2023-01-28T01:40:41.196Z,2.94
2023-01-28T01:41:41.230Z,2.98
2023-01-28T01:42:42.259Z,2.97
2023-01-28T01:43:42.301Z,3.03
2023-01-28T01:44:41.224Z,3.06
2023-01-28T01:45:41.263Z,2.98
2023-01-28T01:46:41.219Z,3.01
2023-01-28T01:47:51.295Z,2.94
2023-01-28T01:48:41.227Z,2.97
2023-01-28T01:49:41.307Z,3
2023-01-28T01:50:43.999Z,3
2023-01-28T01:51:41.241Z,3.01
2023-01-28T01:52:41.242Z,3.01
2023-01-28T01:53:41.237Z,3
2023-01-28T01:54:41.284Z,2.94
2023-01-28T01:55:42.853Z,2.95
2023-01-28T01:56:41.265Z,2.98
2023-01-28T01:57:41.230Z,3.05
2023-01-28T01:58:41.281Z,3.12
2023-01-28T01:59:41.242Z,3.05
2023-01-28T02:00:41.245Z,3.15
2023-01-28T02:01:44.228Z,3.06
2023-01-28T02:02:41.227Z,3.06
2023-01-28T02:03:41.431Z,3.06
2023-01-28T02:04:41.281Z,3.06
2023-01-28T02:05:41.363Z,3.03
2023-01-28T02:06:44.032Z,3.12
2023-01-28T02:07:41.254Z,3.15
2023-01-28T02:08:41.310Z,3.11
2023-01-28T02:09:41.281Z,3.09
2023-01-28T02:10:41.260Z,3.09
2023-01-28T02:11:41.286Z,3.12
2023-01-28T02:12:41.331Z,3.08
2023-01-28T02:13:41.266Z,3.13
2023-01-28T02:14:41.279Z,3.18
2023-01-28T02:15:41.250Z,3.11
2023-01-28T02:16:41.418Z,3.18
2023-01-28T02:17:44.267Z,3.09
2023-01-28T02:18:41.293Z,3.06
2023-01-28T02:19:41.288Z,3.09
2023-01-28T02:20:41.272Z,3.09
2023-01-28T02:21:41.350Z,3.12
2023-01-28T02:22:41.266Z,3.18
2023-01-28T02:23:41.255Z,3.19
2023-01-28T02:24:41.321Z,3.06
2023-01-28T02:25:41.297Z,3.16
2023-01-28T02:26:41.302Z,3.13
2023-01-28T02:27:44.324Z,3.03
2023-01-28T02:28:44.170Z,3.03
2023-01-28T02:29:41.312Z,3.11
2023-01-28T02:30:41.647Z,3.16
2023-01-28T02:31:41.634Z,3.11
2023-01-28T02:32:41.276Z,3.11
2023-01-28T02:33:41.274Z,3.12
2023-01-28T02:35:41.342Z,3.01
2023-01-28T02:36:41.322Z,3.05
2023-01-28T02:37:41.301Z,3.06
2023-01-28T02:38:41.303Z,3.11
2023-01-28T02:39:44.558Z,3.18
2023-01-28T02:40:41.301Z,3.03
2023-01-28T02:41:41.296Z,3.05
2023-01-28T02:42:41.384Z,3.12
2023-01-28T02:43:41.412Z,3.08
2023-01-28T02:44:41.349Z,3.09
2023-01-28T02:45:41.300Z,3.05
2023-01-28T02:46:41.335Z,3.11
2023-01-28T02:47:41.324Z,3.18
2023-01-28T02:48:41.353Z,3.13
2023-01-28T02:49:41.333Z,3.12
2023-01-28T02:50:44.339Z,3.05
2023-01-28T02:51:41.345Z,3.01
2023-01-28T02:52:44.109Z,3.08
2023-01-28T02:53:41.367Z,3.22
2023-01-28T02:54:41.513Z,3.12
2023-01-28T02:55:41.326Z,3.16
2023-01-28T02:56:41.326Z,3.11
2023-01-28T02:57:41.335Z,3.21
2023-01-28T02:58:41.345Z,3.13
2023-01-28T02:59:41.443Z,3.15
2023-01-28T03:00:41.328Z,3.18
2023-01-28T03:01:44.625Z,3.26
2023-01-28T03:02:41.525Z,3.18
2023-01-28T03:03:41.318Z,3.24
2023-01-28T03:04:41.349Z,3.16
2023-01-28T03:05:41.358Z,3.18
2023-01-28T03:06:41.398Z,3.24
2023-01-28T03:07:41.371Z,3.21
2023-01-28T03:08:42.379Z,3.24
2023-01-28T03:09:41.372Z,3.19
2023-01-28T03:10:41.345Z,3.31
2023-01-28T03:11:41.346Z,3.26
2023-01-28T03:12:44.405Z,3.21
2023-01-28T03:13:41.425Z,3.26
2023-01-28T03:14:41.397Z,3.22
2023-01-28T03:15:41.514Z,3.26
2023-01-28T03:16:41.380Z,3.16
2023-01-28T03:17:41.357Z,3.29
2023-01-28T03:18:41.359Z,3.19
2023-01-28T03:19:41.457Z,3.24
2023-01-28T03:20:41.385Z,3.26
2023-01-28T03:21:41.400Z,3.24
2023-01-28T03:22:41.428Z,3.19
2023-01-28T03:23:44.428Z,3.29
2023-01-28T03:24:41.416Z,3.29
2023-01-28T03:25:41.377Z,3.22
2023-01-28T03:26:41.379Z,3.22
2023-01-28T03:27:44.571Z,3.19
2023-01-28T03:28:41.384Z,3.22
2023-01-28T03:29:43.986Z,3.27
2023-01-28T03:30:41.558Z,3.22
2023-01-28T03:31:41.406Z,3.26
2023-01-28T03:32:41.370Z,3.24
2023-01-28T03:33:41.408Z,3.21
2023-01-28T03:34:42.483Z,3.22
2023-01-28T03:35:41.394Z,3.3
2023-01-28T03:36:41.413Z,3.22
2023-01-28T03:37:41.392Z,3.16
2023-01-28T03:38:41.388Z,3.12
2023-01-28T03:39:41.698Z,3.22
2023-01-28T03:40:41.422Z,3.27
2023-01-28T04:58:44.421Z,3.15
2023-01-28T04:59:41.526Z,3.21
2023-01-28T05:00:41.602Z,3.18
2023-01-28T05:01:42.409Z,3.12
2023-01-28T05:02:41.552Z,3.22
2023-01-28T05:03:41.546Z,3.24
2023-01-28T05:04:44.643Z,3.15
2023-01-28T05:05:41.516Z,3.12
2023-01-28T05:06:41.527Z,3.15
2023-01-28T05:07:41.530Z,3.18
2023-01-28T05:08:41.554Z,3.22
2023-01-28T05:09:41.552Z,3.24
2023-01-28T05:10:41.527Z,3.21
2023-01-28T05:11:43.800Z,3.19
2023-01-28T05:12:41.538Z,3.12
2023-01-28T05:13:41.551Z,3.18
2023-01-28T05:14:41.603Z,3.24
2023-01-28T05:15:44.310Z,3.11
2023-01-28T05:16:41.546Z,3.13
2023-01-28T05:17:41.762Z,3.16
2023-01-28T05:18:43.758Z,3.15
2023-01-28T05:19:41.550Z,3.13
2023-01-28T05:20:41.552Z,3.03
2023-01-28T05:21:41.559Z,3.18
2023-01-28T05:22:41.586Z,3.16
2023-01-28T05:23:41.611Z,3.18
2023-01-28T05:24:41.587Z,3.16
2023-01-28T05:25:41.580Z,3.13
2023-01-28T05:26:46.045Z,3.12
2023-01-28T05:27:41.563Z,3.13
2023-01-28T05:28:41.571Z,3.08
2023-01-28T05:29:41.585Z,3.15
2023-01-28T05:30:41.839Z,3.13
2023-01-28T05:31:41.584Z,3.13
2023-01-28T05:32:41.722Z,3.11
2023-01-28T05:33:41.650Z,3.01
2023-01-28T05:34:41.587Z,3.08
2023-01-28T05:35:41.596Z,3.13
2023-01-28T05:36:41.558Z,3.13
2023-01-28T05:37:44.680Z,3.15
2023-01-28T05:38:41.589Z,3.15
2023-01-28T05:39:41.578Z,3.11
2023-01-28T05:40:41.608Z,3.08
2023-01-28T05:41:41.591Z,3.13
2023-01-28T05:42:41.597Z,3.09
2023-01-28T05:43:41.642Z,3.03
2023-01-28T05:44:41.599Z,3.05
2023-01-28T05:45:41.834Z,3.09
2023-01-28T05:46:41.644Z,3.06
2023-01-28T05:47:42.167Z,3.15
2023-01-28T05:48:44.767Z,3.03
2023-01-28T05:49:41.657Z,3.09
2023-01-28T05:50:41.648Z,3.08
2023-01-28T05:51:41.631Z,3
2023-01-28T05:52:41.610Z,2.98
2023-01-28T05:53:41.708Z,3.08
2023-01-28T05:54:50.618Z,3.01
2023-01-28T05:55:41.677Z,3.11
2023-01-28T05:56:41.610Z,3.08
2023-01-28T05:57:41.609Z,3.05
2023-01-28T05:58:41.684Z,3.05
2023-01-28T05:59:44.742Z,3.08
2023-01-28T06:00:41.590Z,3.01
2023-01-28T06:01:41.630Z,3.09
2023-01-28T06:02:41.907Z,3.13
2023-01-28T06:03:41.641Z,3.08
2023-01-28T06:04:41.657Z,3.05
2023-01-28T06:05:41.831Z,3.03
2023-01-28T06:06:41.637Z,3.03
2023-01-28T06:07:41.616Z,2.98
2023-01-28T06:08:41.695Z,2.94
2023-01-28T06:09:41.628Z,3.01
2023-01-28T06:10:44.421Z,3
2023-01-28T06:11:41.691Z,2.98
2023-01-28T06:12:41.633Z,3.08
2023-01-28T06:13:41.655Z,3.03
2023-01-28T06:14:41.646Z,3.05
2023-01-28T06:15:41.760Z,3
2023-01-28T06:16:41.660Z,3
2023-01-28T06:17:41.651Z,2.91
2023-01-28T06:18:41.738Z,2.94
2023-01-28T06:19:41.657Z,2.94
2023-01-28T06:20:41.641Z,2.95
2023-01-28T06:21:41.657Z,2.97
2023-01-28T06:22:41.702Z,3.01
2023-01-28T06:23:42.390Z,2.95
2023-01-28T06:24:41.659Z,2.88
2023-01-28T06:25:41.650Z,3
2023-01-28T06:26:44.724Z,2.95
2023-01-28T06:27:41.645Z,2.97
2023-01-28T06:28:41.692Z,2.95
2023-01-28T06:29:41.638Z,2.94
2023-01-28T06:30:41.806Z,3.01
2023-01-28T06:31:41.661Z,3.03
2023-01-28T06:32:41.650Z,2.9
2023-01-28T06:33:41.693Z,2.95
2023-01-28T06:34:41.733Z,3.05
2023-01-28T06:35:41.679Z,2.97
2023-01-28T06:36:41.532Z,3.01
2023-01-28T06:37:41.701Z,2.9
2023-01-28T06:38:41.557Z,3.05
2023-01-28T06:39:41.691Z,2.97
2023-01-28T06:40:41.686Z,2.94
2023-01-28T06:41:41.690Z,2.91
2023-01-28T06:42:41.541Z,2.94
2023-01-28T06:43:41.704Z,3.03
2023-01-28T06:44:41.698Z,3.08
2023-01-28T06:45:41.684Z,2.97
2023-01-28T06:46:41.905Z,2.93
2023-01-28T06:47:41.689Z,2.91
2023-01-28T06:48:41.718Z,3
2023-01-28T06:49:41.687Z,2.97
2023-01-28T06:50:41.770Z,2.97
2023-01-28T06:51:41.766Z,2.97
2023-01-28T06:52:41.693Z,2.88
2023-01-28T06:53:46.084Z,2.98
2023-01-28T06:54:41.687Z,2.98
2023-01-28T06:55:41.695Z,2.95
2023-01-28T06:56:41.708Z,2.87
2023-01-28T06:57:41.716Z,3
2023-01-28T06:58:44.895Z,2.85
2023-01-28T06:59:41.728Z,2.85
2023-01-28T07:00:41.735Z,2.83
2023-01-28T07:01:42.831Z,2.88
2023-01-28T07:02:41.842Z,2.93
2023-01-28T07:03:41.722Z,2.9
2023-01-28T07:04:44.570Z,2.91
2023-01-28T07:05:41.717Z,2.87
2023-01-28T07:06:41.845Z,2.87
2023-01-28T07:07:44.165Z,2.87
2023-01-28T07:08:41.715Z,2.93
2023-01-28T07:09:44.686Z,2.95
2023-01-28T07:10:41.743Z,2.85
2023-01-28T07:11:41.739Z,2.82
2023-01-28T07:12:41.779Z,2.95
2023-01-28T07:13:41.715Z,2.93
2023-01-28T07:14:41.717Z,2.88
2023-01-28T07:15:44.768Z,2.91
2023-01-28T07:16:41.705Z,2.88
2023-01-28T07:17:41.739Z,2.97
2023-01-28T07:18:41.768Z,2.93
2023-01-28T07:19:41.740Z,2.98
2023-01-28T07:20:44.595Z,2.91
2023-01-28T07:21:41.743Z,2.98
2023-01-28T07:22:41.882Z,2.95
2023-01-28T07:23:41.750Z,2.95
2023-01-28T07:24:41.739Z,2.95
2023-01-28T07:25:41.804Z,2.93
2023-01-28T07:26:41.758Z,2.98
2023-01-28T07:27:41.763Z,2.97
2023-01-28T07:28:41.740Z,3.03
2023-01-28T07:29:41.783Z,2.98
2023-01-28T07:30:41.912Z,2.85
2023-01-28T07:31:45.241Z,2.97
2023-01-28T07:32:41.767Z,2.94
2023-01-28T07:33:42.759Z,3.05
2023-01-28T07:34:41.768Z,3.01
2023-01-28T07:35:41.771Z,3.01
2023-01-28T07:36:41.743Z,2.98
2023-01-28T07:37:41.758Z,3.03
2023-01-28T07:38:41.834Z,3.09
2023-01-28T07:39:41.760Z,3.03
2023-01-28T07:40:41.767Z,3.11
2023-01-28T07:41:41.784Z,3.01
2023-01-28T07:42:44.625Z,3.01
2023-01-28T07:43:41.774Z,3.11
2023-01-28T07:44:41.834Z,3.06
2023-01-28T07:45:41.809Z,3.15
2023-01-28T07:46:41.787Z,3.05
2023-01-28T07:47:41.771Z,3.05
2023-01-28T07:48:41.774Z,3.16
2023-01-28T07:49:41.779Z,3.16
2023-01-28T07:50:41.825Z,3.11
2023-01-28T07:51:41.905Z,2.98
2023-01-28T07:52:41.777Z,3.03
2023-01-28T07:53:44.704Z,3.15
2023-01-28T07:54:41.818Z,3.09
2023-01-28T07:55:41.855Z,3.08
2023-01-28T07:56:41.815Z,3.18
2023-01-28T07:57:41.845Z,3.06
2023-01-28T07:58:41.789Z,3.18
2023-01-28T07:59:41.840Z,3.08
2023-01-28T08:00:41.818Z,3.16
2023-01-28T08:01:42.038Z,3.09
2023-01-28T08:02:41.796Z,3.27
2023-01-28T08:03:41.809Z,3.18
2023-01-28T08:04:45.204Z,3.11
2023-01-28T08:05:44.799Z,3.06
2023-01-28T08:06:41.793Z,3.21
2023-01-28T08:07:41.794Z,3.16
2023-01-28T08:08:41.814Z,3.13
2023-01-28T08:09:41.720Z,3.18
2023-01-28T08:10:41.831Z,3.16
2023-01-28T08:11:41.813Z,3.09
2023-01-28T08:12:41.820Z,3.26
2023-01-28T08:13:41.845Z,3.13
2023-01-28T08:14:41.840Z,3.19
2023-01-28T08:15:46.814Z,3.26
2023-01-28T08:16:41.819Z,3.22
2023-01-28T08:17:41.826Z,3.24
2023-01-28T08:18:41.740Z,3.3
2023-01-28T08:19:41.862Z,3.22
2023-01-28T08:20:41.859Z,3.21
2023-01-28T08:21:41.847Z,3.27
2023-01-28T08:22:41.872Z,3.22
2023-01-28T08:23:41.847Z,3.22
2023-01-28T08:24:41.893Z,3.31
2023-01-28T08:25:41.926Z,3.27
2023-01-28T08:26:44.941Z,3.24
2023-01-28T08:27:41.851Z,3.24
2023-01-28T08:28:41.858Z,3.26
2023-01-28T08:29:41.982Z,3.36
2023-01-28T08:30:42.008Z,3.31
2023-01-28T08:31:42.268Z,3.41
2023-01-28T08:32:41.867Z,3.46
2023-01-28T08:33:41.855Z,3.46
2023-01-28T08:34:41.863Z,3.52
2023-01-28T08:35:41.855Z,3.49
2023-01-28T08:36:41.868Z,3.34
2023-01-28T08:37:44.664Z,3.46
2023-01-28T08:38:41.853Z,3.45
2023-01-28T08:39:41.895Z,3.55
2023-01-28T08:40:41.896Z,3.45
2023-01-28T08:41:41.919Z,3.46
2023-01-28T08:42:41.937Z,3.53
2023-01-28T08:43:41.888Z,3.48
2023-01-28T08:44:41.900Z,3.53
2023-01-28T08:45:42.037Z,3.5
2023-01-28T08:46:42.028Z,3.55
2023-01-28T08:47:41.854Z,3.53
2023-01-28T08:48:41.897Z,3.53
2023-01-28T08:49:41.911Z,3.53
2023-01-28T08:50:41.857Z,3.45
2023-01-28T08:51:41.876Z,3.5
2023-01-28T08:52:41.894Z,3.53
2023-01-28T08:53:44.912Z,3.46
2023-01-28T08:54:41.913Z,3.55
2023-01-28T08:55:41.902Z,3.53
2023-01-28T08:56:42.904Z,3.49
2023-01-28T08:57:41.922Z,3.41
2023-01-28T08:58:41.928Z,3.48
2023-01-28T08:59:41.907Z,3.66
2023-01-28T09:00:41.934Z,3.56
2023-01-28T09:01:42.096Z,3.46
2023-01-28T09:02:41.893Z,3.55
2023-01-28T09:03:41.965Z,3.56
2023-01-28T09:04:42.963Z,3.67
2023-01-28T09:05:41.984Z,3.67
2023-01-28T09:06:41.951Z,3.59
2023-01-28T09:07:41.906Z,3.68
2023-01-28T09:08:41.919Z,3.73
2023-01-28T09:09:41.934Z,3.77
2023-01-28T09:10:41.973Z,3.76
2023-01-28T09:11:41.906Z,3.85
2023-01-28T09:12:41.905Z,3.71
2023-01-28T09:13:41.980Z,3.77
2023-01-28T09:14:41.991Z,3.91
2023-01-28T09:15:41.971Z,3.85
2023-01-28T09:16:41.914Z,3.81
2023-01-28T09:17:41.923Z,3.78
2023-01-28T09:18:41.904Z,3.84
2023-01-28T09:19:41.933Z,3.77
2023-01-28T09:20:44.994Z,3.77
2023-01-28T09:21:41.935Z,3.85
2023-01-28T09:22:41.931Z,3.77
2023-01-28T09:23:41.987Z,3.86
2023-01-28T09:24:43.630Z,3.92
2023-01-28T09:25:42.085Z,3.92
2023-01-28T09:26:41.939Z,3.99
2023-01-28T09:27:41.954Z,3.91
2023-01-28T09:28:41.940Z,3.81
2023-01-28T09:29:42.420Z,3.91
2023-01-28T09:30:42.905Z,3.78
2023-01-28T09:31:45.220Z,3.84
2023-01-28T09:32:41.977Z,3.88
2023-01-28T09:33:41.967Z,3.86
2023-01-28T09:34:41.973Z,3.74
2023-01-28T09:35:41.980Z,3.94
2023-01-28T09:36:44.713Z,3.82
2023-01-28T09:37:42.014Z,3.78
2023-01-28T09:38:41.982Z,3.85
2023-01-28T09:39:42.128Z,3.84
2023-01-28T09:40:42.058Z,3.88
2023-01-28T09:41:41.965Z,3.88
2023-01-28T09:42:45.081Z,3.81
2023-01-28T09:43:41.971Z,3.95
2023-01-28T09:44:42.056Z,3.81
2023-01-28T09:45:42.033Z,4.03
2023-01-28T09:46:42.126Z,3.95
2023-01-28T09:47:45.067Z,3.96
2023-01-28T09:48:41.986Z,3.94
2023-01-28T09:49:42.002Z,4.02
2023-01-28T09:50:41.986Z,3.94
2023-01-28T09:51:41.966Z,4.06
2023-01-28T09:52:42.009Z,3.99
2023-01-28T09:53:45.088Z,4.09
2023-01-28T09:54:42.002Z,3.95
2023-01-28T09:55:42.035Z,3.89
2023-01-28T09:56:41.974Z,3.92
2023-01-28T09:57:41.990Z,3.95
2023-01-28T09:58:45.121Z,3.85
2023-01-28T09:59:42.005Z,3.92
2023-01-28T10:00:42.197Z,3.92
2023-01-28T10:01:42.044Z,3.85
2023-01-28T10:02:42.029Z,3.84
2023-01-28T10:03:42.141Z,3.88
2023-01-28T10:04:42.023Z,3.89
2023-01-28T10:05:45.499Z,3.94
2023-01-28T10:06:41.983Z,3.96
2023-01-28T10:07:42.003Z,3.91
2023-01-28T10:08:42.019Z,3.96
2023-01-28T10:09:45.817Z,3.91
2023-01-28T10:10:42.012Z,3.85
2023-01-28T10:11:42.001Z,3.96
2023-01-28T10:12:42.017Z,3.92
2023-01-28T10:13:42.019Z,3.95
2023-01-28T10:14:42.044Z,3.99
2023-01-28T10:15:42.039Z,4.1
2023-01-28T10:16:42.046Z,4
2023-01-28T10:17:42.330Z,3.91
2023-01-28T10:18:42.058Z,3.88
2023-01-28T10:19:42.062Z,3.89
2023-01-28T10:20:45.138Z,4.03
2023-01-28T10:21:42.168Z,4.09
2023-01-28T10:22:42.011Z,3.99
2023-01-28T10:23:42.010Z,4.1
2023-01-28T10:24:42.122Z,4.12
2023-01-28T10:25:42.010Z,4.09
2023-01-28T10:26:42.058Z,4.14
2023-01-28T10:27:42.082Z,4.12
2023-01-28T10:28:42.026Z,4.18
2023-01-28T10:29:42.074Z,4.14
2023-01-28T10:30:41.942Z,4.04
2023-01-28T10:31:45.032Z,4.21
2023-01-28T10:32:42.082Z,4.07
2023-01-28T10:33:42.109Z,4.1
2023-01-28T10:34:42.101Z,4.02
2023-01-28T10:35:42.053Z,4.07
2023-01-28T10:36:42.265Z,4.09
2023-01-28T10:37:42.031Z,4.06
2023-01-28T10:38:42.052Z,4.2
2023-01-28T10:39:42.083Z,4.21
2023-01-28T10:40:44.777Z,4.18
2023-01-28T10:42:00.202Z,4.28
2023-01-28T10:42:45.185Z,4.07
2023-01-28T10:43:42.130Z,4.2
2023-01-28T10:44:42.104Z,4.1
2023-01-28T10:45:42.320Z,4.14
2023-01-28T10:46:42.068Z,4.28
2023-01-28T10:47:42.099Z,4.2
2023-01-28T10:48:42.103Z,4.24
2023-01-28T10:49:42.150Z,4.22
2023-01-28T10:50:44.960Z,4.27
2023-01-28T10:51:42.090Z,4.32
2023-01-28T10:52:42.075Z,4.22
2023-01-28T10:53:45.127Z,4.3
2023-01-28T10:54:42.131Z,4.39
2023-01-28T10:55:42.062Z,4.38
2023-01-28T10:56:42.063Z,4.4
2023-01-28T10:57:42.074Z,4.43
2023-01-28T10:58:42.099Z,4.4
2023-01-28T10:59:50.982Z,4.46
2023-01-28T11:00:42.132Z,4.56
2023-01-28T11:01:44.689Z,4.45
2023-01-28T11:02:42.398Z,4.49
2023-01-28T11:03:42.135Z,4.52
2023-01-28T11:04:42.269Z,4.52
2023-01-28T11:05:42.142Z,4.53
2023-01-28T11:06:42.111Z,4.53
2023-01-28T11:07:42.091Z,4.64
2023-01-28T11:08:42.104Z,4.64
2023-01-28T11:09:42.213Z,4.61
2023-01-28T11:10:42.125Z,4.52
2023-01-28T11:11:42.088Z,4.43
2023-01-28T11:12:42.147Z,4.46
2023-01-28T11:13:42.116Z,4.49
2023-01-28T11:14:42.136Z,4.3
2023-01-28T11:15:42.098Z,4.38
2023-01-28T11:16:42.182Z,4.42
2023-01-28T11:17:42.485Z,4.4
2023-01-28T11:18:42.187Z,4.45
2023-01-28T11:19:42.150Z,4.6
2023-01-28T11:20:42.182Z,4.53
2023-01-28T11:21:42.161Z,4.63
2023-01-28T11:22:42.196Z,4.64
2023-01-28T11:23:42.120Z,4.7
2023-01-28T11:24:42.296Z,4.63
2023-01-28T11:25:42.257Z,4.67
2023-01-28T11:26:42.128Z,4.7
2023-01-28T11:27:42.125Z,4.63
2023-01-28T11:28:42.131Z,4.61
2023-01-28T11:29:42.240Z,4.6
2023-01-28T11:30:42.270Z,4.63
2023-01-28T11:31:42.220Z,4.58
2023-01-28T11:32:42.167Z,4.61
2023-01-28T11:33:42.117Z,4.61
2023-01-28T11:34:42.193Z,4.43
2023-01-28T11:35:42.135Z,4.52
2023-01-28T11:36:42.151Z,4.58
2023-01-28T11:37:42.226Z,4.57
2023-01-28T11:38:42.170Z,4.63
2023-01-28T11:39:44.887Z,4.45
2023-01-28T11:40:42.131Z,4.6
2023-01-28T11:41:42.186Z,4.68
2023-01-28T11:42:42.172Z,4.61
2023-01-28T11:43:42.175Z,4.64
2023-01-28T11:44:42.233Z,4.5
2023-01-28T11:45:42.479Z,4.56
2023-01-28T11:46:42.154Z,4.61
2023-01-28T11:47:45.608Z,4.94
2023-01-28T11:48:42.287Z,4.74
2023-01-28T11:49:42.449Z,4.71
2023-01-28T11:50:42.431Z,4.6
2023-01-28T11:51:42.251Z,4.64
2023-01-28T11:53:10.237Z,4.6
2023-01-28T11:53:42.307Z,4.74
2023-01-28T11:54:43.414Z,4.84
2023-01-28T11:55:42.537Z,4.68
2023-01-28T11:56:42.197Z,4.58
2023-01-28T11:57:42.189Z,4.76
2023-01-28T11:58:45.278Z,4.64
2023-01-28T11:59:42.228Z,4.64
2023-01-28T12:00:42.181Z,4.61
2023-01-28T12:01:42.236Z,4.78
2023-01-28T12:02:42.322Z,4.68
2023-01-28T12:03:45.311Z,4.76
2023-01-28T12:04:42.364Z,4.66
2023-01-28T12:05:42.191Z,4.63
2023-01-28T12:06:42.184Z,4.67
2023-01-28T12:07:42.192Z,4.63
2023-01-28T12:08:42.247Z,4.57
2023-01-28T12:09:48.044Z,4.6
2023-01-28T12:10:42.190Z,4.4
2023-01-28T12:11:42.193Z,4.32
2023-01-28T12:12:42.198Z,4.36
2023-01-28T12:13:42.216Z,4.36
2023-01-28T12:14:43.900Z,4.48
2023-01-28T12:15:42.381Z,4.43
2023-01-28T12:16:42.178Z,4.36
2023-01-28T12:17:42.285Z,4.38
2023-01-28T12:18:42.205Z,4.46
2023-01-28T12:19:42.217Z,4.42
2023-01-28T12:20:45.018Z,4.39
2023-01-28T12:21:42.237Z,4.43
2023-01-28T12:22:42.224Z,4.36
2023-01-28T12:23:42.225Z,4.36
2023-01-28T12:24:45.048Z,4.4
2023-01-28T12:25:44.997Z,4.46
2023-01-28T12:26:42.253Z,4.36
2023-01-28T12:27:42.228Z,4.31
2023-01-28T12:28:42.328Z,4.31
2023-01-28T12:29:42.246Z,4.34
2023-01-28T12:30:42.418Z,4.38
2023-01-28T12:31:42.509Z,4.36
2023-01-28T12:32:42.234Z,4.32
2023-01-28T12:33:42.248Z,4.36
2023-01-28T12:34:42.230Z,4.27
2023-01-28T12:35:42.254Z,4.21
2023-01-28T12:36:45.275Z,4.25
2023-01-28T12:37:42.265Z,4.27
2023-01-28T12:38:42.270Z,4.25
2023-01-28T12:39:42.266Z,4.3
2023-01-28T12:40:42.320Z,4.36
2023-01-28T12:41:42.259Z,4.36
2023-01-28T12:42:42.232Z,4.34
2023-01-28T12:43:42.266Z,4.3
2023-01-28T12:44:42.245Z,4.28
2023-01-28T12:45:42.489Z,4.32
2023-01-28T12:46:42.268Z,4.22
2023-01-28T12:47:45.124Z,4.18
2023-01-28T12:48:42.412Z,4.21
2023-01-28T12:49:42.250Z,4.1
2023-01-28T12:50:42.258Z,4.1
2023-01-28T12:51:43.268Z,4.09
2023-01-28T12:52:42.309Z,4.14
2023-01-28T12:53:42.315Z,4.16
2023-01-28T12:54:42.284Z,4.18
2023-01-28T12:55:42.267Z,4.18
2023-01-28T12:56:42.362Z,4.16
2023-01-28T12:57:42.310Z,4.24
2023-01-28T12:58:45.286Z,4.12
2023-01-28T12:59:42.308Z,3.85
2023-01-28T13:00:42.265Z,4.02
2023-01-28T13:01:42.426Z,4.04
2023-01-28T13:02:42.333Z,4.13
2023-01-28T13:03:42.317Z,4.07
2023-01-28T13:04:48.374Z,3.88
2023-01-28T13:05:42.276Z,3.88
2023-01-28T13:06:42.277Z,4.02
2023-01-28T13:07:42.303Z,4.07
2023-01-28T13:08:42.291Z,4.12
2023-01-28T13:09:46.347Z,4.02
2023-01-28T13:10:42.295Z,4.06
2023-01-28T13:11:42.325Z,4.09
2023-01-28T13:12:42.388Z,4.09
2023-01-28T13:13:42.317Z,4
2023-01-28T13:14:42.317Z,3.96
2023-01-28T13:15:42.378Z,3.92
2023-01-28T13:16:43.051Z,3.94
2023-01-28T13:17:42.340Z,3.85
2023-01-28T13:18:42.404Z,3.91
2023-01-28T13:19:42.350Z,3.82
2023-01-28T13:20:45.202Z,3.89
2023-01-28T13:21:53.455Z,4.03
2023-01-28T13:22:42.305Z,3.99
2023-01-28T13:23:42.348Z,3.89
2023-01-28T13:24:42.330Z,4
2023-01-28T13:25:42.361Z,3.95
2023-01-28T13:26:45.151Z,3.96
2023-01-28T13:27:42.338Z,3.92
2023-01-28T13:28:42.369Z,3.88
2023-01-28T13:29:42.369Z,3.92
2023-01-28T13:30:42.488Z,3.89
2023-01-28T13:31:45.466Z,4.03
2023-01-28T13:32:42.589Z,3.96
2023-01-28T13:33:42.387Z,4
2023-01-28T13:34:42.382Z,3.95
2023-01-28T13:35:42.389Z,3.88
2023-01-28T13:36:43.393Z,3.85
2023-01-28T13:37:42.387Z,3.85
2023-01-28T13:38:42.308Z,3.88
2023-01-28T13:39:42.399Z,3.91
2023-01-28T13:40:42.365Z,3.84
2023-01-28T13:41:42.388Z,3.92
2023-01-28T13:42:42.432Z,3.82
2023-01-28T13:43:42.455Z,3.81
2023-01-28T13:44:42.488Z,3.78
2023-01-28T13:45:42.619Z,3.77
2023-01-28T13:46:42.594Z,3.85
2023-01-28T13:47:42.380Z,3.88
2023-01-28T13:48:42.353Z,3.85
2023-01-28T13:49:42.389Z,3.81
2023-01-28T13:50:42.401Z,3.76
2023-01-28T13:51:42.192Z,3.88
2023-01-28T13:52:42.400Z,3.78
2023-01-28T13:53:42.392Z,3.85
2023-01-28T13:54:42.359Z,3.77
2023-01-28T13:55:50.083Z,3.89
2023-01-28T13:56:42.463Z,3.85
2023-01-28T13:57:42.381Z,3.82
2023-01-28T13:58:42.599Z,3.76
2023-01-28T13:59:42.382Z,3.81
2023-01-28T14:00:42.569Z,3.85
2023-01-28T14:01:42.679Z,3.78
2023-01-28T14:02:42.375Z,3.85
2023-01-28T14:03:42.395Z,3.81
2023-01-28T14:04:42.497Z,3.85
2023-01-28T14:05:42.424Z,3.89
2023-01-28T14:06:42.382Z,3.94
2023-01-28T14:07:42.433Z,3.95
2023-01-28T14:08:42.374Z,3.91
2023-01-28T14:09:42.443Z,3.92
2023-01-28T14:10:42.457Z,3.85
2023-01-28T14:11:42.406Z,3.74
2023-01-28T14:12:42.380Z,3.86
2023-01-28T14:13:42.377Z,3.78
2023-01-28T14:14:45.385Z,3.76
2023-01-28T14:15:42.722Z,3.85
2023-01-28T14:16:43.507Z,3.78
2023-01-28T14:17:42.475Z,3.78
2023-01-28T14:18:42.415Z,3.88
2023-01-28T14:19:42.389Z,3.85
2023-01-28T14:20:42.549Z,3.85
2023-01-28T14:21:42.439Z,3.85
2023-01-28T14:22:42.459Z,3.82
2023-01-28T14:23:42.398Z,3.91
2023-01-28T14:24:42.441Z,3.89
2023-01-28T14:25:45.221Z,3.81
2023-01-28T14:26:42.422Z,3.88
2023-01-28T14:27:42.418Z,3.78
2023-01-28T14:28:42.471Z,3.76
2023-01-28T14:29:42.450Z,3.78
2023-01-28T14:30:43.289Z,3.81
2023-01-28T14:31:42.888Z,3.86
2023-01-28T14:32:42.555Z,3.73
2023-01-28T14:33:42.482Z,3.73
2023-01-28T14:34:43.465Z,3.78
2023-01-28T14:35:42.510Z,3.76
2023-01-28T14:36:45.374Z,3.82
2023-01-28T14:37:42.471Z,3.7
2023-01-28T14:38:42.431Z,3.74
2023-01-28T14:39:42.499Z,3.67
2023-01-28T14:40:42.501Z,3.74